KDED/DED METAR and TAF weather

Enter ICAO airport designator
Station Type Date Time Source
KDED METAR 2022/07/01 01:35 UTC NOAA

KDED 010135Z AUTO 15004KT 10SM CLR 24/22 A3012 RMK AO2 T02450223


Station Type Date Time Source
KDED Decoded METAR 2022/07/01 01:35 UTC NOAA

Station name not available
Jun 30, 2022 - 09:35 PM EDT / 2022.07.01 0135 UTC
Wind: from the SSE (150 degrees) at 5 MPH (4 KT):0
Visibility: 10 mile(s):0
Sky conditions: clear
Temperature: 76.1 F (24.5 C)
Dew Point: 72.1 F (22.3 C)
Relative Humidity: 87%
Pressure (altimeter): 30.12 in. Hg (1019 hPa)
ob: KDED 010135Z AUTO 15004KT 10SM CLR 24/22 A3012 RMK AO2 T02450223
cycle: 1

Station Type Date Time Source
KDED TAF UTC NOAA

Error!

Example: see airport list